Time;durP1;ratioP1;P1;durP2;ratioP2;P2;SDS_P1;SDS_P2;PMS_P1;PMS_P2;Temp;Humidity;BMP_temperature;BMP_pressure;BME280_temperature;BME280_humidity;BME280_pressure;Samples;Min_cycle;Max_cycle;Signal;HPM_P1;HPM_P2
2022/07/25 00:01:43;;;;;;;;;8.67;8.00;;;;;27.82;37.74;100799.66;5081504;27;62005;-67
2022/07/25 00:04:10;;;;;;;;;11.00;9.00;;;;;27.80;38.01;100792.69;5080964;28;46796;-68
2022/07/25 00:06:36;;;;;;;;;11.00;9.00;;;;;27.78;38.46;100790.13;5082244;27;45454;-67
2022/07/25 00:09:02;;;;;;;;;10.67;8.33;;;;;27.77;37.99;100788.47;5082311;27;45388;-67
2022/07/25 00:11:27;;;;;;;;;10.67;10.00;;;;;27.75;38.02;100782.31;5080741;28;45324;-67
2022/07/25 00:13:53;;;;;;;;;9.67;9.67;;;;;27.73;38.37;100779.78;5081321;27;68102;-67
2022/07/25 00:16:18;;;;;;;;;9.00;9.00;;;;;27.70;37.96;100772.00;5081120;27;68365;-68
2022/07/25 00:18:43;;;;;;;;;10.00;10.00;;;;;27.69;38.22;100780.34;5081240;27;63464;-67
2022/07/25 00:21:09;;;;;;;;;9.00;9.00;;;;;27.67;38.48;100776.97;5081587;27;62714;-67
2022/07/25 00:23:34;;;;;;;;;10.67;10.67;;;;;27.67;38.49;100769.63;5081817;27;46128;-67
2022/07/25 00:25:59;;;;;;;;;9.67;9.33;;;;;27.67;38.98;100769.63;5081316;27;62300;-67
2022/07/25 00:28:25;;;;;;;;;12.00;10.33;;;;;27.64;39.20;100760.94;5081273;27;59450;-67
2022/07/25 00:30:50;;;;;;;;;10.67;10.67;;;;;27.61;39.13;100756.72;5081624;27;45497;-67
2022/07/25 00:33:16;;;;;;;;;9.67;9.67;;;;;27.57;39.22;100763.59;5081214;27;61019;-67
2022/07/25 00:35:41;;;;;;;;;9.67;9.33;;;;;27.54;39.14;100759.38;5081663;27;45212;-67
2022/07/25 00:38:07;;;;;;;;;12.00;10.00;;;;;27.54;38.74;100764.81;5080758;27;63396;-67
2022/07/25 00:40:33;;;;;;;;;12.33;10.00;;;;;27.55;39.53;100757.50;5080834;27;66808;-67
2022/07/25 00:42:59;;;;;;;;;10.00;9.33;;;;;27.53;39.11;100752.22;5081562;27;45395;-67
2022/07/25 00:45:24;;;;;;;;;12.00;11.67;;;;;27.50;38.92;100755.31;5081400;27;45259;-67
2022/07/25 00:47:49;;;;;;;;;11.00;10.33;;;;;27.49;39.30;100761.81;5081757;27;45425;-67
2022/07/25 00:50:15;;;;;;;;;7.67;7.67;;;;;27.46;39.46;100778.59;5081368;27;52836;-66
2022/07/25 00:52:40;;;;;;;;;12.33;11.67;;;;;27.41;39.41;100783.75;5080517;27;70963;-66
2022/07/25 00:55:06;;;;;;;;;11.50;11.50;;;;;27.33;39.29;100776.47;5081573;27;45383;-67
2022/07/25 00:57:32;;;;;;;;;12.33;12.33;;;;;27.30;39.27;100779.59;5081629;27;45433;-66
2022/07/25 00:59:57;;;;;;;;;13.33;12.00;;;;;27.25;40.05;100773.84;5079001;28;64395;-66
2022/07/25 01:02:22;;;;;;;;;9.33;9.33;;;;;27.22;39.43;100782.41;5080684;27;59556;-66
2022/07/25 01:04:48;;;;;;;;;14.00;10.67;;;;;27.19;39.01;100783.63;5080625;27;62628;-66
2022/07/25 01:07:14;;;;;;;;;8.00;8.00;;;;;27.19;39.33;100780.88;5081165;28;45410;-66
2022/07/25 01:09:39;;;;;;;;;9.00;9.00;;;;;27.19;39.58;100783.63;5080479;27;63398;-66
2022/07/25 01:12:04;;;;;;;;;10.33;10.33;;;;;27.18;39.61;100776.47;5081125;27;46379;-66
2022/07/25 01:14:30;;;;;;;;;7.67;7.67;;;;;27.18;40.03;100775.63;5081329;28;45432;-66
2022/07/25 01:16:55;;;;;;;;;8.00;8.00;;;;;27.18;39.87;100772.88;5080809;27;49566;-66
2022/07/25 01:19:20;;;;;;;;;9.00;9.00;;;;;27.17;39.38;100771.19;5080561;27;63101;-66
2022/07/25 01:21:46;;;;;;;;;10.00;7.67;;;;;27.15;39.29;100781.47;5079568;27;71886;-66
2022/07/25 01:24:11;;;;;;;;;9.67;8.67;;;;;27.13;39.68;100784.38;5079671;27;65758;-66
2022/07/25 01:26:37;;;;;;;;;9.67;9.00;;;;;27.12;39.61;100773.63;5080253;27;62999;-66
2022/07/25 01:29:03;;;;;;;;;10.00;8.33;;;;;27.07;40.32;100771.47;5081197;27;45339;-66
2022/07/25 01:31:28;;;;;;;;;10.00;9.00;;;;;27.04;40.09;100780.03;5080440;27;45954;-67
2022/07/25 01:33:54;;;;;;;;;10.33;9.33;;;;;26.99;39.49;100772.41;5080638;27;45412;-66
2022/07/25 01:36:19;;;;;;;;;8.33;8.00;;;;;26.97;39.54;100779.06;5080847;27;45493;-67
2022/07/25 01:38:45;;;;;;;;;10.33;10.33;;;;;26.91;39.63;100781.50;5081003;27;45441;-67
2022/07/25 01:41:10;;;;;;;;;7.67;7.33;;;;;26.83;39.69;100775.28;5080693;27;46997;-66
2022/07/25 01:43:35;;;;;;;;;8.67;8.67;;;;;26.80;40.33;100781.09;5080725;27;45410;-66
2022/07/25 01:46:01;;;;;;;;;9.00;9.00;;;;;26.75;40.99;100776.19;5078660;28;66003;-67
2022/07/25 01:48:26;;;;;;;;;10.00;10.00;;;;;26.69;40.18;100780.47;5080843;27;45395;-67
2022/07/25 01:50:52;;;;;;;;;8.00;8.00;;;;;26.63;40.30;100780.38;5079842;27;67057;-67
2022/07/25 01:53:17;;;;;;;;;8.00;7.67;;;;;26.55;40.14;100776.66;5080357;27;45583;-67
2022/07/25 01:55:46;;;;;;;;;9.33;8.33;;;;;26.47;40.81;100773.19;5080097;27;60789;-67
2022/07/25 01:58:11;;;;;;;;;10.67;9.67;;;;;26.36;40.88;100785.34;5079845;28;65030;-67
2022/07/25 02:00:37;;;;;;;;;7.33;7.33;;;;;26.23;41.63;100791.38;5079451;27;67539;-67
2022/07/25 02:05:46;;;;;;;;;9.33;7.67;;;;;25.91;41.84;100783.19;5080636;28;45475;-67
2022/07/25 02:08:11;;;;;;;;;6.67;5.67;;;;;25.76;41.77;100776.78;5079769;27;54130;-66
2022/07/25 02:10:37;;;;;;;;;8.00;7.33;;;;;25.64;42.38;100778.22;5080004;28;56065;-66
2022/07/25 02:13:02;;;;;;;;;8.00;8.00;;;;;25.54;42.08;100775.69;5080316;27;45358;-68
2022/07/25 02:15:28;;;;;;;;;5.00;5.00;;;;;25.47;41.86;100783.69;5080161;27;45332;-67
2022/07/25 02:17:53;;;;;;;;;6.00;6.00;;;;;25.38;42.18;100785.63;5080430;28;45592;-67
2022/07/25 02:20:18;;;;;;;;;5.33;5.33;;;;;25.28;42.11;100787.66;5080093;27;50531;-67
2022/07/25 02:22:44;;;;;;;;;5.67;4.33;;;;;25.19;42.40;100802.31;5079313;27;66302;-67
2022/07/25 02:25:09;;;;;;;;;4.33;4.33;;;;;25.07;42.77;100778.16;5080449;27;45586;-67
2022/07/25 02:27:34;;;;;;;;;6.00;6.00;;;;;25.01;42.48;100783.44;5079577;27;60644;-67
2022/07/25 02:30:00;;;;;;;;;5.00;5.00;;;;;24.97;42.22;100784.81;5078913;28;68720;-67
2022/07/25 02:32:25;;;;;;;;;4.00;4.00;;;;;24.94;42.49;100786.84;5079885;27;61785;-67
2022/07/25 02:34:50;;;;;;;;;4.00;4.00;;;;;24.91;42.61;100783.63;5082150;27;62539;-67
2022/07/25 02:37:16;;;;;;;;;4.00;4.00;;;;;24.86;42.38;100784.16;5083718;27;45448;-67
2022/07/25 02:39:41;;;;;;;;;4.00;4.00;;;;;24.81;42.35;100783.81;5082992;27;66649;-67
2022/07/25 02:42:06;;;;;;;;;3.00;3.00;;;;;24.75;42.29;100779.88;5083403;27;50997;-67
2022/07/25 02:44:32;;;;;;;;;5.00;3.33;;;;;24.71;42.92;100785.84;5083425;27;51822;-67
2022/07/25 02:46:57;;;;;;;;;4.00;4.00;;;;;24.67;43.21;100782.63;5082731;27;61862;-67
2022/07/25 02:49:22;;;;;;;;;3.67;3.67;;;;;24.63;42.62;100789.41;5082968;27;60470;-67
2022/07/25 02:51:48;;;;;;;;;4.00;4.00;;;;;24.58;42.81;100787.16;5082465;27;70486;-67
2022/07/25 02:54:13;;;;;;;;;5.00;3.00;;;;;24.52;42.46;100784.25;5083544;27;45325;-67
2022/07/25 02:56:38;;;;;;;;;6.33;3.00;;;;;24.48;42.42;100794.63;5083585;27;45530;-67
2022/07/25 02:59:04;;;;;;;;;4.00;4.00;;;;;24.47;42.64;100794.78;5082432;27;67238;-67
2022/07/25 03:01:29;;;;;;;;;2.00;2.00;;;;;24.44;42.46;100799.56;5082352;27;70091;-67
2022/07/25 03:03:54;;;;;;;;;3.00;3.00;;;;;24.40;42.54;100791.91;5083384;27;45327;-67
2022/07/25 03:06:20;;;;;;;;;2.00;2.00;;;;;24.37;42.52;100797.69;5083333;27;45361;-67
2022/07/25 03:08:45;;;;;;;;;2.67;2.67;;;;;24.33;42.69;100790.88;5082190;27;71206;-67
2022/07/25 03:11:12;;;;;;;;;4.33;4.33;;;;;24.29;42.44;100795.81;5082620;27;62423;-67
2022/07/25 03:13:37;;;;;;;;;3.00;1.00;;;;;24.28;42.60;100789.50;5083216;27;45359;-67
2022/07/25 03:16:03;;;;;;;;;5.00;3.67;;;;;24.27;42.54;100805.97;5082336;27;56053;-67
2022/07/25 03:18:28;;;;;;;;;2.00;2.00;;;;;24.24;42.26;100807.16;5083055;27;46630;-67
2022/07/25 03:20:54;;;;;;;;;2.67;2.67;;;;;24.21;42.42;100806.63;5082288;27;65053;-67
2022/07/25 03:23:19;;;;;;;;;3.33;3.00;;;;;24.20;42.62;100803.06;5082142;27;64128;-67
2022/07/25 03:25:44;;;;;;;;;3.00;3.00;;;;;24.16;42.26;100804.44;5082508;27;59731;-67
2022/07/25 03:28:09;;;;;;;;;1.00;1.00;;;;;24.13;42.41;100801.19;5082304;27;61450;-67
2022/07/25 03:30:35;;;;;;;;;2.67;2.67;;;;;24.09;42.57;100812.41;5082066;27;60908;-67
2022/07/25 03:33:00;;;;;;;;;4.00;3.00;;;;;24.07;42.43;100816.28;5081943;27;65789;-67
2022/07/25 03:35:25;;;;;;;;;2.00;2.00;;;;;24.06;42.46;100814.59;5082318;27;63400;-67
2022/07/25 03:37:51;;;;;;;;;4.33;3.00;;;;;24.03;42.50;100814.94;5081671;27;67864;-67
2022/07/25 03:40:17;;;;;;;;;1.67;1.67;;;;;24.02;42.37;100821.38;5082824;27;45410;-67
2022/07/25 03:42:42;;;;;;;;;4.33;3.00;;;;;24.00;42.39;100823.38;5082687;27;45412;-67
2022/07/25 03:45:08;;;;;;;;;3.00;2.67;;;;;23.97;42.32;100827.28;5081958;28;45386;-67
2022/07/25 03:47:34;;;;;;;;;1.00;1.00;;;;;23.94;42.69;100833.03;5081224;28;47500;-67
2022/07/25 03:49:59;;;;;;;;;3.00;3.00;;;;;23.88;42.76;100830.94;5081878;27;64514;-66
2022/07/25 03:52:24;;;;;;;;;2.00;2.00;;;;;23.84;43.06;100844.00;5081614;27;63304;-67
2022/07/25 03:54:50;;;;;;;;;2.00;2.00;;;;;23.77;42.44;100845.66;5082669;27;45541;-67
2022/07/25 03:57:15;;;;;;;;;2.00;2.00;;;;;23.71;42.75;100840.88;5081578;27;68640;-67
2022/07/25 03:59:40;;;;;;;;;1.00;1.00;;;;;23.66;42.81;100851.38;5081510;27;65807;-67
2022/07/25 04:02:06;;;;;;;;;2.67;2.67;;;;;23.60;42.90;100856.44;5082483;27;45389;-67
2022/07/25 04:04:31;;;;;;;;;2.33;2.33;;;;;23.55;42.91;100853.34;5082434;27;45316;-67
2022/07/25 04:06:56;;;;;;;;;2.00;2.00;;;;;23.53;42.57;100855.38;5082011;27;45454;-67
2022/07/25 04:09:22;;;;;;;;;3.00;3.00;;;;;23.51;42.78;100848.41;5082397;28;45467;-67
2022/07/25 04:11:47;;;;;;;;;2.00;2.00;;;;;23.49;42.76;100850.44;5081802;27;54234;-67
2022/07/25 04:14:13;;;;;;;;;1.00;1.00;;;;;23.45;43.11;100847.19;5081609;27;64790;-67
2022/07/25 04:16:38;;;;;;;;;1.67;1.67;;;;;23.42;42.72;100839.38;5082019;27;46358;-67
2022/07/25 04:19:04;;;;;;;;;1.00;1.00;;;;;23.37;42.99;100850.69;5080631;27;61083;-67
2022/07/25 04:21:29;;;;;;;;;3.67;2.33;;;;;23.31;42.92;100856.78;5082450;27;45461;-67
2022/07/25 04:23:55;;;;;;;;;0.33;0.33;;;;;23.29;43.26;100853.34;5082208;27;45533;-67
2022/07/25 04:26:20;;;;;;;;;1.67;1.00;;;;;23.27;43.30;100860.78;5082109;27;45955;-67
2022/07/25 04:28:46;;;;;;;;;1.00;1.00;;;;;23.23;43.27;100862.13;5082028;28;45393;-67
2022/07/25 04:31:11;;;;;;;;;3.00;2.00;;;;;23.21;43.66;100861.44;5081172;27;58758;-67
2022/07/25 04:33:37;;;;;;;;;1.00;1.00;;;;;23.18;43.63;100862.63;5081055;27;67364;-67
2022/07/25 04:36:03;;;;;;;;;1.00;1.00;;;;;23.15;43.75;100872.91;5081782;27;47124;-67
2022/07/25 04:38:29;;;;;;;;;1.00;1.00;;;;;23.10;43.82;100868.78;5081713;27;45434;-67
2022/07/25 04:40:54;;;;;;;;;2.00;2.00;;;;;23.10;44.49;100867.91;5081191;27;59895;-67
2022/07/25 04:43:19;;;;;;;;;2.33;2.00;;;;;23.09;44.28;100871.66;5080917;27;66365;-67
2022/07/25 04:45:45;;;;;;;;;2.00;1.00;;;;;23.06;44.29;100880.97;5081596;27;46116;-67
2022/07/25 04:48:10;;;;;;;;;3.67;2.00;;;;;23.04;45.07;100882.97;5081604;27;48948;-67
2022/07/25 04:50:36;;;;;;;;;1.00;1.00;;;;;23.02;45.25;100884.13;5081676;27;45354;-67
2022/07/25 04:53:01;;;;;;;;;0.00;0.00;;;;;23.03;44.96;100883.13;5081633;28;45528;-67
2022/07/25 04:55:26;;;;;;;;;1.00;1.00;;;;;23.01;45.46;100877.88;5080730;27;66493;-67
2022/07/25 04:57:52;;;;;;;;;1.00;1.00;;;;;23.01;45.61;100877.88;5079873;27;60794;-67
2022/07/25 05:00:17;;;;;;;;;4.33;1.33;;;;;22.99;45.86;100873.59;5080733;27;61832;-67
2022/07/25 05:02:42;;;;;;;;;4.00;1.00;;;;;22.96;46.03;100877.50;5081432;27;45727;-67
2022/07/25 05:05:08;;;;;;;;;2.00;2.00;;;;;23.01;46.56;100877.00;5081161;27;50166;-67
2022/07/25 05:07:35;;;;;;;;;2.00;2.00;;;;;23.01;46.21;100877.00;5080990;27;45276;-67
2022/07/25 05:10:00;;;;;;;;;2.67;1.00;;;;;23.01;46.19;100866.16;5081403;27;45369;-67
2022/07/25 05:12:26;;;;;;;;;2.00;2.00;;;;;23.02;46.46;100878.72;5081183;27;45533;-68
2022/07/25 05:14:52;;;;;;;;;1.67;1.00;;;;;23.04;46.07;100877.53;5080461;27;63250;-67
2022/07/25 05:17:18;;;;;;;;;2.00;2.00;;;;;23.04;46.57;100877.53;5081082;27;45279;-67
2022/07/25 05:19:43;;;;;;;;;2.33;0.67;;;;;23.03;47.11;100881.25;5080283;27;65708;-67
2022/07/25 05:22:09;;;;;;;;;2.00;2.00;;;;;23.04;48.16;100877.53;5080463;27;61907;-67
2022/07/25 05:24:35;;;;;;;;;1.00;1.00;;;;;23.01;47.56;100887.84;5079939;27;70325;-67
2022/07/25 05:27:00;;;;;;;;;2.00;2.00;;;;;23.01;48.19;100890.56;5080926;27;45402;-67
2022/07/25 05:29:26;;;;;;;;;3.00;1.00;;;;;22.95;48.17;100892.88;5081106;27;45429;-67
2022/07/25 05:31:51;;;;;;;;;3.33;1.33;;;;;22.95;47.58;100892.88;5080630;27;45675;-67
2022/07/25 05:34:16;;;;;;;;;2.67;1.00;;;;;23.00;47.67;100891.56;5080243;27;59606;-67
2022/07/25 05:36:42;;;;;;;;;2.00;2.00;;;;;23.07;47.34;100896.22;5079969;27;63927;-67
2022/07/25 05:39:07;;;;;;;;;3.00;2.00;;;;;23.18;47.52;100902.44;5080114;27;59357;-67
2022/07/25 05:41:32;;;;;;;;;2.00;1.00;;;;;23.24;47.67;100904.53;5080359;27;55901;-67
2022/07/25 05:43:58;;;;;;;;;3.00;2.00;;;;;23.25;47.10;100901.66;5080624;27;46189;-67
2022/07/25 05:46:23;;;;;;;;;1.67;1.67;;;;;23.27;47.39;100899.66;5079499;27;68165;-67
2022/07/25 05:48:48;;;;;;;;;2.33;1.67;;;;;23.30;47.44;100901.19;5080281;27;57019;-66
2022/07/25 05:51:14;;;;;;;;;3.00;1.33;;;;;23.33;47.20;100909.00;5079657;27;66945;-66
2022/07/25 05:53:39;;;;;;;;;2.00;1.00;;;;;23.37;47.25;100913.09;5079609;27;68327;-67
2022/07/25 05:56:05;;;;;;;;;2.33;1.00;;;;;23.38;47.40;100920.25;5080148;27;51000;-67
2022/07/25 05:58:30;;;;;;;;;1.00;1.00;;;;;23.39;48.00;100918.41;5080517;27;45435;-67
2022/07/25 06:00:58;;;;;;;;;1.67;1.67;;;;;23.40;47.59;100925.50;5080310;27;45299;-67
2022/07/25 06:03:24;;;;;;;;;3.00;1.33;;;;;23.42;47.53;100926.22;5080271;27;46213;-67
2022/07/25 06:05:49;;;;;;;;;2.00;1.00;;;;;23.41;47.95;100930.78;5079452;27;63791;-67
2022/07/25 06:08:14;;;;;;;;;2.00;2.00;;;;;23.38;47.52;100930.25;5079038;27;61151;-66
2022/07/25 06:10:40;;;;;;;;;1.33;1.33;;;;;23.36;47.65;100919.56;5080020;28;52762;-66
2022/07/25 06:13:05;;;;;;;;;2.00;2.00;;;;;23.37;47.80;100932.09;5079423;27;65860;-67
2022/07/25 06:15:31;;;;;;;;;2.00;2.00;;;;;23.40;47.77;100930.94;5079908;27;45486;-67
2022/07/25 06:17:56;;;;;;;;;2.00;2.00;;;;;23.43;47.65;100931.47;5080419;27;45201;-66
2022/07/25 06:20:22;;;;;;;;;1.33;1.33;;;;;23.47;47.25;100932.00;5079384;27;64932;-66
2022/07/25 06:22:47;;;;;;;;;2.00;2.00;;;;;23.49;47.63;100943.53;5079840;27;46084;-67
2022/07/25 06:25:12;;;;;;;;;4.00;3.00;;;;;23.51;48.31;100943.41;5078577;28;49858;-67
2022/07/25 06:27:38;;;;;;;;;1.00;1.00;;;;;23.50;47.75;100939.00;5079928;27;45358;-67
2022/07/25 06:30:05;;;;;;;;;3.00;3.00;;;;;23.51;47.81;100946.13;5079553;28;45216;-67
2022/07/25 06:32:30;;;;;;;;;2.00;2.00;;;;;23.54;47.65;100948.50;5079874;27;46243;-67
2022/07/25 06:34:56;;;;;;;;;1.00;1.00;;;;;23.56;47.47;100941.09;5078752;27;68178;-67
2022/07/25 06:37:21;;;;;;;;;2.33;2.00;;;;;23.57;47.57;100954.50;5079203;27;61496;-67
2022/07/25 06:39:46;;;;;;;;;1.00;1.00;;;;;23.61;47.87;100958.59;5079413;27;60193;-66
2022/07/25 06:42:12;;;;;;;;;2.00;2.00;;;;;23.65;47.86;100955.53;5078880;27;72176;-68
2022/07/25 06:44:37;;;;;;;;;1.00;1.00;;;;;23.68;47.94;100958.78;5079480;27;45878;-67
2022/07/25 06:47:04;;;;;;;;;2.00;1.00;;;;;23.74;48.17;100958.16;5079840;27;45333;-68
2022/07/25 06:49:29;;;;;;;;;3.00;1.67;;;;;23.87;47.54;100959.59;5079816;27;45416;-68
2022/07/25 06:51:55;;;;;;;;;1.00;1.00;;;;;24.00;48.06;100960.06;5079566;27;46294;-68
2022/07/25 06:54:20;;;;;;;;;1.67;1.67;;;;;24.09;47.89;100955.50;5078710;27;65800;-68
2022/07/25 06:56:46;;;;;;;;;2.33;2.00;;;;;24.19;48.26;100956.25;5079848;27;45463;-69
2022/07/25 06:59:11;;;;;;;;;1.67;1.67;;;;;24.31;47.21;100961.41;5079501;27;45270;-69
2022/07/25 07:01:36;;;;;;;;;3.00;3.00;;;;;24.48;47.26;100959.59;5078618;27;64189;-68
2022/07/25 07:04:03;;;;;;;;;2.33;2.00;;;;;24.66;47.28;100967.69;5079306;27;45439;-68
2022/07/25 07:06:28;;;;;;;;;1.67;1.67;;;;;24.85;46.57;100971.97;5079578;27;45350;-69
2022/07/25 07:08:54;;;;;;;;;1.00;1.00;;;;;25.01;46.30;100976.59;5079144;27;45555;-69
2022/07/25 07:11:20;;;;;;;;;1.00;1.00;;;;;25.17;46.13;100975.78;5079228;27;47052;-69
2022/07/25 07:13:45;;;;;;;;;1.00;1.00;;;;;25.37;45.22;100976.31;5078395;27;67525;-69
2022/07/25 07:16:10;;;;;;;;;2.00;2.00;;;;;25.58;45.00;100975.81;5078826;27;49847;-70
2022/07/25 07:18:36;;;;;;;;;1.67;1.67;;;;;25.83;44.57;100973.91;5077323;28;58050;-71
2022/07/25 07:21:03;;;;;;;;;2.67;1.67;;;;;26.12;43.96;100982.56;5080452;27;46024;-72
2022/07/25 07:23:28;;;;;;;;;1.00;1.00;;;;;26.34;43.70;100972.78;5082481;27;45440;-71
2022/07/25 07:25:54;;;;;;;;;1.75;1.75;;;;;26.61;43.36;100976.91;5081952;27;61288;-71
2022/07/25 07:28:19;;;;;;;;;0.75;0.75;;;;;26.89;42.71;100977.28;5082559;27;48184;-72
2022/07/25 07:30:45;;;;;;;;;0.50;0.50;;;;;27.20;42.01;100983.75;5081875;27;48053;-72
2022/07/25 07:33:10;;;;;;;;;1.33;1.33;;;;;27.55;41.28;100978.72;5082493;27;45416;-74
2022/07/25 07:35:35;;;;;;;;;1.00;1.00;;;;;27.81;40.78;100977.44;5082846;27;45404;-72
2022/07/25 07:38:01;;;;;;;;;1.25;1.25;;;;;28.04;40.85;100983.72;5082411;27;45441;-71
2022/07/25 07:40:26;;;;;;;;;1.33;1.33;;;;;28.39;40.08;100992.22;5082285;27;47836;-71
2022/07/25 07:42:52;;;;;;;;;0.75;0.75;;;;;28.86;40.43;100981.88;5082012;27;45250;-71
2022/07/25 07:45:22;;;;;;;;;1.25;0.25;;;;;29.34;37.73;100988.69;5082110;27;45538;-73
2022/07/25 07:47:49;;;;;;;;;0.75;0.75;;;;;29.68;37.81;100987.91;5082410;27;45441;-73
2022/07/25 07:50:16;;;;;;;;;2.75;1.00;;;;;30.11;37.55;100992.47;5081991;27;46436;-73
2022/07/25 07:52:42;;;;;;;;;0.00;0.00;;;;;30.63;36.31;100984.75;5082165;28;45382;-73
2022/07/25 07:57:52;;;;;;;;;1.00;0.00;;;;;31.88;34.14;100991.72;5082434;28;45339;-73
2022/07/25 08:00:18;;;;;;;;;3.75;1.00;;;;;32.47;33.34;101002.81;5080531;28;47209;-74
2022/07/25 08:02:54;;;;;;;;;0.00;0.00;;;;;32.93;32.98;101001.78;5082118;27;45362;-74
2022/07/25 08:05:31;;;;;;;;;0.00;0.00;;;;;33.46;31.13;101003.34;5082398;27;45315;-73
2022/07/25 08:07:57;;;;;;;;;1.75;0.75;;;;;34.01;31.48;101007.34;5082175;27;45376;-73
2022/07/25 08:10:25;;;;;;;;;0.00;0.00;;;;;34.48;29.87;101012.34;5082141;27;46114;-75
2022/07/25 08:12:51;;;;;;;;;1.00;0.00;;;;;34.96;30.42;101005.19;5080890;28;45466;-74
2022/07/25 08:15:18;;;;;;;;;0.00;0.00;;;;;34.91;29.80;101007.81;5080351;28;45337;-73
2022/07/25 08:17:44;;;;;;;;;0.25;0.00;;;;;34.83;30.34;101002.59;5081985;27;45253;-73
2022/07/25 08:20:10;;;;;;;;;0.75;0.75;;;;;35.10;28.78;101017.72;5081683;27;45430;-74
2022/07/25 08:22:40;;;;;;;;;0.00;0.00;;;;;35.31;29.12;101009.97;5081504;27;45311;-74
2022/07/25 08:25:08;;;;;;;;;0.00;0.00;;;;;35.69;28.47;101014.25;5082027;27;45737;-75
2022/07/25 08:27:35;;;;;;;;;0.00;0.00;;;;;36.06;27.63;101021.50;5079992;28;45418;-73
2022/07/25 08:30:01;;;;;;;;;0.00;0.00;;;;;36.32;26.28;101008.22;5079480;28;45362;-74
2022/07/25 08:32:27;;;;;;;;;0.00;0.00;;;;;36.25;26.94;101011.13;5081595;27;45567;-74
2022/07/25 08:34:53;;;;;;;;;0.00;0.00;;;;;36.37;27.41;101014.75;5081591;27;45464;-74
2022/07/25 08:37:18;;;;;;;;;0.00;0.00;;;;;36.80;26.48;101020.88;5081565;28;45318;-74
2022/07/25 08:39:44;;;;;;;;;0.50;0.50;;;;;36.67;26.40;101026.72;5080478;27;72190;-73
2022/07/25 08:42:09;;;;;;;;;0.25;0.00;;;;;36.12;26.62;101016.94;5081560;27;45425;-73
2022/07/25 08:44:37;;;;;;;;;0.00;0.00;;;;;35.91;27.58;101019.22;5080722;28;56510;-74
2022/07/25 08:47:03;;;;;;;;;0.00;0.00;;;;;35.54;27.21;101023.03;5080338;28;45357;-73
2022/07/25 08:49:28;;;;;;;;;0.00;0.00;;;;;34.95;27.78;101025.59;5080326;28;69077;-74
2022/07/25 08:51:55;;;;;;;;;0.00;0.00;;;;;34.27;28.31;101022.75;5081220;27;45369;-72
2022/07/25 08:54:22;;;;;;;;;0.75;0.75;;;;;33.76;29.34;101023.88;5081441;27;45485;-73
2022/07/25 08:56:47;;;;;;;;;1.00;0.00;;;;;33.39;29.67;101019.09;5081162;27;45496;-73
2022/07/25 08:59:13;;;;;;;;;0.25;0.25;;;;;33.06;30.05;101022.88;5080085;27;68788;-71
2022/07/25 09:01:38;;;;;;;;;0.00;0.00;;;;;32.71;30.39;101031.53;5080467;27;64576;-72
2022/07/25 09:04:07;;;;;;;;;0.00;0.00;;;;;32.25;30.81;101027.84;5081118;27;45445;-71
2022/07/25 09:06:32;;;;;;;;;1.00;1.00;;;;;31.91;31.49;101031.69;5081044;27;45341;-71
2022/07/25 09:08:59;;;;;;;;;1.00;0.75;;;;;31.62;32.06;101031.06;5081001;27;46191;-71
2022/07/25 09:11:35;;;;;;;;;0.00;0.00;;;;;31.30;32.09;101031.66;5081244;27;45389;-71
2022/07/25 09:14:05;;;;;;;;;0.00;0.00;;;;;31.03;32.54;101036.19;5081026;27;45471;-70
2022/07/25 09:16:33;;;;;;;;;1.00;0.00;;;;;30.77;32.32;101031.44;5080824;27;45407;-70
2022/07/25 09:19:09;;;;;;;;;0.00;0.00;;;;;30.57;33.66;101040.44;5080888;27;46209;-71
2022/07/25 09:21:35;;;;;;;;;0.00;0.00;;;;;30.46;34.69;101060.19;5080711;27;45291;-70
2022/07/25 09:24:08;;;;;;;;;2.33;2.33;;;;;30.36;34.05;101055.06;5080711;27;45409;-69
2022/07/25 09:26:44;;;;;;;;;2.67;2.33;;;;;30.24;34.38;101053.94;5080775;27;45400;-69
2022/07/25 09:29:15;;;;;;;;;1.00;1.00;;;;;30.10;34.80;101059.31;5080368;27;45354;-70
2022/07/25 09:31:41;;;;;;;;;1.00;1.00;;;;;30.04;35.04;101060.16;5080297;28;45489;-69
2022/07/25 09:34:08;;;;;;;;;0.00;0.00;;;;;30.00;35.14;101067.06;5080874;27;45376;-70
2022/07/25 09:36:34;;;;;;;;;0.00;0.00;;;;;30.01;35.09;101066.00;5080540;27;45416;-70
2022/07/25 09:39:01;;;;;;;;;0.33;0.33;;;;;30.18;34.98;101066.56;5080541;27;46012;-70
2022/07/25 09:41:38;;;;;;;;;0.00;0.00;;;;;30.32;35.23;101072.97;5080549;27;45342;-70
2022/07/25 09:44:13;;;;;;;;;0.00;0.00;;;;;30.70;34.35;101061.59;5079868;27;45458;-70
2022/07/25 09:46:39;;;;;;;;;0.33;0.33;;;;;31.42;33.57;101062.09;5080334;27;45390;-71
2022/07/25 09:49:04;;;;;;;;;0.00;0.00;;;;;31.76;32.50;101064.88;5079553;27;67910;-70
2022/07/25 09:51:29;;;;;;;;;0.33;0.00;;;;;31.88;32.27;101062.38;5079580;27;64847;-71
2022/07/25 09:53:55;;;;;;;;;0.67;0.67;;;;;31.84;32.47;101071.03;5079133;28;45576;-70
2022/07/25 09:56:20;;;;;;;;;0.00;0.00;;;;;31.62;32.21;101067.63;5079461;27;66768;-70
2022/07/25 09:58:46;;;;;;;;;0.67;0.67;;;;;31.27;33.27;101077.91;5080191;27;45402;-69
2022/07/25 10:01:17;;;;;;;;;0.00;0.00;;;;;30.92;33.67;101084.28;5079998;28;45384;-69
2022/07/25 10:03:49;;;;;;;;;1.67;0.00;;;;;30.49;34.29;101088.13;5078931;28;45464;-68
2022/07/25 10:06:33;;;;;;;;;1.00;1.00;;;;;30.19;34.61;101087.44;5080009;27;45338;-69
2022/07/25 10:08:58;;;;;;;;;0.67;0.67;;;;;30.09;35.11;101089.69;5079921;27;45595;-69
2022/07/25 10:11:25;;;;;;;;;1.33;1.33;;;;;30.18;34.45;101086.59;5079615;27;60033;-68
2022/07/25 10:13:52;;;;;;;;;1.33;1.33;;;;;30.29;34.25;101090.69;5080106;27;45373;-70
2022/07/25 10:16:22;;;;;;;;;0.00;0.00;;;;;30.30;34.79;101088.81;5078578;28;45444;-69
2022/07/25 10:18:52;;;;;;;;;2.33;1.00;;;;;30.30;34.98;101099.78;5079780;27;45397;-69
2022/07/25 10:21:18;;;;;;;;;0.33;0.33;;;;;30.21;34.51;101088.09;5078794;28;45375;-69
2022/07/25 10:23:45;;;;;;;;;1.00;0.67;;;;;30.19;34.85;101092.94;5080322;27;45501;-69
2022/07/25 10:26:18;;;;;;;;;1.33;1.33;;;;;30.10;35.04;101094.97;5078655;28;45536;-69
2022/07/25 10:28:46;;;;;;;;;0.00;0.00;;;;;30.03;35.53;101094.91;5065768;28;45259;-70
2022/07/25 10:31:23;;;;;;;;;0.33;0.33;;;;;30.01;34.85;101107.13;5079339;27;45157;-69
2022/07/25 10:33:52;;;;;;;;;1.67;1.00;;;;;30.13;35.31;101102.81;5080050;27;45215;-69
2022/07/25 10:36:18;;;;;;;;;1.00;1.00;;;;;30.22;35.44;101103.53;5079562;27;45497;-69
2022/07/25 10:38:45;;;;;;;;;0.00;0.00;;;;;30.26;35.19;101109.44;5078494;28;46160;-69
2022/07/25 10:41:15;;;;;;;;;1.00;1.00;;;;;30.23;35.27;101104.34;5079703;27;45335;-68
2022/07/25 10:43:43;;;;;;;;;1.00;1.00;;;;;30.15;35.56;101103.44;5079719;27;45332;-69
2022/07/25 10:46:14;;;;;;;;;1.00;1.00;;;;;30.04;35.12;101120.47;5079622;27;45420;-69
2022/07/25 10:48:40;;;;;;;;;2.00;2.00;;;;;29.89;35.36;101116.94;5077973;28;46199;-70
2022/07/25 10:51:11;;;;;;;;;4.33;1.33;;;;;29.68;35.56;101113.97;5079455;27;45426;-69
2022/07/25 10:53:45;;;;;;;;;1.67;1.67;;;;;29.34;36.26;101118.25;5079548;27;45847;-70
2022/07/25 10:56:18;;;;;;;;;0.00;0.00;;;;;29.12;36.42;101116.50;5081369;27;45411;-69
2022/07/25 10:58:50;;;;;;;;;2.00;2.00;;;;;29.00;36.89;101113.41;5083190;27;46053;-69
2022/07/25 11:01:19;;;;;;;;;2.00;2.00;;;;;28.97;37.28;101121.97;5082762;27;45516;-69
2022/07/25 11:03:45;;;;;;;;;1.00;1.00;;;;;29.02;36.86;101111.31;5083207;27;45529;-70
2022/07/25 11:06:14;;;;;;;;;0.00;0.00;;;;;29.16;37.03;101126.84;5081809;27;62553;-69
2022/07/25 11:08:42;;;;;;;;;2.00;2.00;;;;;29.56;36.62;101114.72;5082794;27;46202;-69
2022/07/25 11:11:08;;;;;;;;;2.67;2.67;;;;;30.33;35.52;101124.06;5082841;27;45276;-70
2022/07/25 11:13:41;;;;;;;;;6.33;3.67;;;;;30.85;35.43;101122.72;5083078;27;45360;-69
2022/07/25 11:16:07;;;;;;;;;2.33;2.33;;;;;31.05;33.99;101123.91;5082788;27;45558;-69
2022/07/25 11:18:35;;;;;;;;;3.00;1.00;;;;;31.42;33.64;101117.06;5082485;27;46881;-70
2022/07/25 11:21:02;;;;;;;;;1.00;1.00;;;;;31.77;33.17;101102.31;5081576;28;45477;-70
2022/07/25 11:23:27;;;;;;;;;2.33;1.00;;;;;31.85;32.44;101115.88;5082612;27;45295;-69
2022/07/25 11:26:05;;;;;;;;;5.00;1.00;;;;;31.89;32.61;101110.78;5082709;27;45312;-70